sensor_id;sensor_type;location;lat;lon;timestamp;temperature;humidity
29007;DHT22;16104;48.642;9.008;2023-11-21T00:02:53;10.80;69.90
29007;DHT22;16104;48.642;9.008;2023-11-21T00:07:49;10.80;70.00
29007;DHT22;16104;48.642;9.008;2023-11-21T00:12:44;10.70;70.10
29007;DHT22;16104;48.642;9.008;2023-11-21T00:17:43;10.70;70.30
29007;DHT22;16104;48.642;9.008;2023-11-21T00:22:39;10.70;70.40
29007;DHT22;16104;48.642;9.008;2023-11-21T00:27:35;10.70;70.50
29007;DHT22;16104;48.642;9.008;2023-11-21T00:32:31;10.70;70.60
29007;DHT22;16104;48.642;9.008;2023-11-21T00:37:27;10.70;70.70
29007;DHT22;16104;48.642;9.008;2023-11-21T00:42:22;10.70;70.70
29007;DHT22;16104;48.642;9.008;2023-11-21T00:47:18;10.70;70.80
29007;DHT22;16104;48.642;9.008;2023-11-21T00:52:13;10.70;70.80
29007;DHT22;16104;48.642;9.008;2023-11-21T00:57:09;10.70;71.80
29007;DHT22;16104;48.642;9.008;2023-11-21T01:02:04;10.70;71.00
29007;DHT22;16104;48.642;9.008;2023-11-21T01:07:00;10.70;71.00
29007;DHT22;16104;48.642;9.008;2023-11-21T01:11:55;10.70;71.10
29007;DHT22;16104;48.642;9.008;2023-11-21T01:16:52;10.70;71.00
29007;DHT22;16104;48.642;9.008;2023-11-21T01:21:48;10.70;71.00
29007;DHT22;16104;48.642;9.008;2023-11-21T01:26:43;10.70;71.00
29007;DHT22;16104;48.642;9.008;2023-11-21T01:31:41;10.70;71.00
29007;DHT22;16104;48.642;9.008;2023-11-21T01:36:37;10.70;70.90
29007;DHT22;16104;48.642;9.008;2023-11-21T01:41:32;10.70;71.00
29007;DHT22;16104;48.642;9.008;2023-11-21T01:46:28;10.60;71.00
29007;DHT22;16104;48.642;9.008;2023-11-21T01:51:24;10.60;71.00
29007;DHT22;16104;48.642;9.008;2023-11-21T01:56:21;10.60;71.10
29007;DHT22;16104;48.642;9.008;2023-11-21T02:01:17;10.50;71.00
29007;DHT22;16104;48.642;9.008;2023-11-21T02:06:14;10.60;71.00
29007;DHT22;16104;48.642;9.008;2023-11-21T02:11:10;10.60;70.90
29007;DHT22;16104;48.642;9.008;2023-11-21T02:16:09;10.60;71.00
29007;DHT22;16104;48.642;9.008;2023-11-21T02:21:05;10.50;71.00
29007;DHT22;16104;48.642;9.008;2023-11-21T02:26:01;10.50;70.90
29007;DHT22;16104;48.642;9.008;2023-11-21T02:30:59;10.50;71.00
29007;DHT22;16104;48.642;9.008;2023-11-21T02:35:55;10.60;71.10
29007;DHT22;16104;48.642;9.008;2023-11-21T02:40:50;10.50;71.10
29007;DHT22;16104;48.642;9.008;2023-11-21T02:45:46;10.50;71.10
29007;DHT22;16104;48.642;9.008;2023-11-21T02:50:41;10.50;71.20
29007;DHT22;16104;48.642;9.008;2023-11-21T02:55:38;10.40;71.20
29007;DHT22;16104;48.642;9.008;2023-11-21T03:00:33;10.40;71.30
29007;DHT22;16104;48.642;9.008;2023-11-21T03:05:29;10.40;71.30
29007;DHT22;16104;48.642;9.008;2023-11-21T03:10:25;10.40;71.30
29007;DHT22;16104;48.642;9.008;2023-11-21T03:15:20;10.50;71.30
29007;DHT22;16104;48.642;9.008;2023-11-21T03:20:16;10.40;71.20
29007;DHT22;16104;48.642;9.008;2023-11-21T03:25:18;10.40;71.00
29007;DHT22;16104;48.642;9.008;2023-11-21T03:30:15;10.20;71.00
29007;DHT22;16104;48.642;9.008;2023-11-21T03:35:12;10.40;71.00
29007;DHT22;16104;48.642;9.008;2023-11-21T03:40:08;10.40;71.00
29007;DHT22;16104;48.642;9.008;2023-11-21T03:45:05;10.30;71.10
29007;DHT22;16104;48.642;9.008;2023-11-21T03:50:01;10.30;71.30
29007;DHT22;16104;48.642;9.008;2023-11-21T03:54:56;10.30;71.20
29007;DHT22;16104;48.642;9.008;2023-11-21T03:59:52;10.30;71.30
29007;DHT22;16104;48.642;9.008;2023-11-21T04:04:47;10.30;71.40
29007;DHT22;16104;48.642;9.008;2023-11-21T04:09:43;10.30;71.50
29007;DHT22;16104;48.642;9.008;2023-11-21T04:14:39;10.30;71.50
29007;DHT22;16104;48.642;9.008;2023-11-21T04:19:34;10.30;71.70
29007;DHT22;16104;48.642;9.008;2023-11-21T04:24:30;10.30;71.80
29007;DHT22;16104;48.642;9.008;2023-11-21T04:29:25;10.30;71.80
29007;DHT22;16104;48.642;9.008;2023-11-21T04:34:22;10.30;71.90
29007;DHT22;16104;48.642;9.008;2023-11-21T04:39:17;10.30;71.90
29007;DHT22;16104;48.642;9.008;2023-11-21T04:44:13;10.30;71.90
29007;DHT22;16104;48.642;9.008;2023-11-21T04:49:09;10.30;71.90
29007;DHT22;16104;48.642;9.008;2023-11-21T04:54:04;10.30;71.90
29007;DHT22;16104;48.642;9.008;2023-11-21T04:59:01;10.40;71.90
29007;DHT22;16104;48.642;9.008;2023-11-21T05:03:56;10.40;72.00
29007;DHT22;16104;48.642;9.008;2023-11-21T05:08:52;10.40;71.90
29007;DHT22;16104;48.642;9.008;2023-11-21T05:13:48;10.40;72.00
29007;DHT22;16104;48.642;9.008;2023-11-21T05:18:44;10.40;72.10
29007;DHT22;16104;48.642;9.008;2023-11-21T05:23:40;10.40;72.00
29007;DHT22;16104;48.642;9.008;2023-11-21T05:28:35;10.40;72.30
29007;DHT22;16104;48.642;9.008;2023-11-21T05:33:32;10.40;72.30
29007;DHT22;16104;48.642;9.008;2023-11-21T05:38:28;10.40;72.30
29007;DHT22;16104;48.642;9.008;2023-11-21T05:43:24;10.40;72.30
29007;DHT22;16104;48.642;9.008;2023-11-21T05:48:20;10.40;72.40
29007;DHT22;16104;48.642;9.008;2023-11-21T05:53:16;10.30;72.40
29007;DHT22;16104;48.642;9.008;2023-11-21T05:58:12;10.30;72.50
29007;DHT22;16104;48.642;9.008;2023-11-21T06:03:09;10.30;72.60
29007;DHT22;16104;48.642;9.008;2023-11-21T06:08:05;10.40;72.80
29007;DHT22;16104;48.642;9.008;2023-11-21T06:13:01;10.30;72.80
29007;DHT22;16104;48.642;9.008;2023-11-21T06:17:59;10.30;73.40
29007;DHT22;16104;48.642;9.008;2023-11-21T06:22:55;10.30;72.50
29007;DHT22;16104;48.642;9.008;2023-11-21T06:27:50;10.30;72.60
29007;DHT22;16104;48.642;9.008;2023-11-21T06:32:48;10.30;72.60
29007;DHT22;16104;48.642;9.008;2023-11-21T06:37:44;10.30;72.50
29007;DHT22;16104;48.642;9.008;2023-11-21T06:42:47;10.30;72.50
29007;DHT22;16104;48.642;9.008;2023-11-21T06:47:42;10.40;72.50
29007;DHT22;16104;48.642;9.008;2023-11-21T06:52:38;10.30;72.40
29007;DHT22;16104;48.642;9.008;2023-11-21T06:57:34;10.30;72.40
29007;DHT22;16104;48.642;9.008;2023-11-21T07:02:29;10.30;72.40
29007;DHT22;16104;48.642;9.008;2023-11-21T07:07:25;10.30;72.50
29007;DHT22;16104;48.642;9.008;2023-11-21T07:12:34;10.50;72.60
29007;DHT22;16104;48.642;9.008;2023-11-21T07:17:44;10.30;72.60
29007;DHT22;16104;48.642;9.008;2023-11-21T07:22:47;10.30;72.40
29007;DHT22;16104;48.642;9.008;2023-11-21T07:27:45;10.40;72.60
29007;DHT22;16104;48.642;9.008;2023-11-21T07:44:43;10.40;72.80
29007;DHT22;16104;48.642;9.008;2023-11-21T07:49:39;10.50;72.40
29007;DHT22;16104;48.642;9.008;2023-11-21T07:54:43;10.30;72.30
29007;DHT22;16104;48.642;9.008;2023-11-21T07:59:42;10.50;72.40
29007;DHT22;16104;48.642;9.008;2023-11-21T08:04:51;10.50;72.30
29007;DHT22;16104;48.642;9.008;2023-11-21T08:09:50;10.40;72.00
29007;DHT22;16104;48.642;9.008;2023-11-21T08:14:53;10.40;72.20
29007;DHT22;16104;48.642;9.008;2023-11-21T08:20:18;10.60;72.50
29007;DHT22;16104;48.642;9.008;2023-11-21T08:25:17;10.50;72.40
29007;DHT22;16104;48.642;9.008;2023-11-21T08:30:15;10.60;72.50
29007;DHT22;16104;48.642;9.008;2023-11-21T08:35:22;10.60;72.50
29007;DHT22;16104;48.642;9.008;2023-11-21T08:40:20;10.60;72.50
29007;DHT22;16104;48.642;9.008;2023-11-21T08:45:19;10.70;72.50
29007;DHT22;16104;48.642;9.008;2023-11-21T08:50:15;10.80;72.30
29007;DHT22;16104;48.642;9.008;2023-11-21T08:55:14;10.80;72.30
29007;DHT22;16104;48.642;9.008;2023-11-21T09:00:17;10.80;72.40
29007;DHT22;16104;48.642;9.008;2023-11-21T09:05:14;11.00;72.50
29007;DHT22;16104;48.642;9.008;2023-11-21T09:10:11;11.10;72.40
29007;DHT22;16104;48.642;9.008;2023-11-21T09:15:08;11.20;72.20
29007;DHT22;16104;48.642;9.008;2023-11-21T09:20:05;11.20;71.90
29007;DHT22;16104;48.642;9.008;2023-11-21T09:25:05;11.30;72.00
29007;DHT22;16104;48.642;9.008;2023-11-21T09:30:05;11.30;71.70
29007;DHT22;16104;48.642;9.008;2023-11-21T09:35:04;11.40;71.70
29007;DHT22;16104;48.642;9.008;2023-11-21T09:40:06;11.40;71.40
29007;DHT22;16104;48.642;9.008;2023-11-21T09:45:29;11.50;71.30
29007;DHT22;16104;48.642;9.008;2023-11-21T09:50:29;11.50;71.50
29007;DHT22;16104;48.642;9.008;2023-11-21T09:55:35;11.60;71.30
29007;DHT22;16104;48.642;9.008;2023-11-21T10:00:32;11.70;70.90
29007;DHT22;16104;48.642;9.008;2023-11-21T10:05:28;11.70;71.00
29007;DHT22;16104;48.642;9.008;2023-11-21T10:10:32;11.80;70.90
29007;DHT22;16104;48.642;9.008;2023-11-21T10:15:27;11.80;70.90
29007;DHT22;16104;48.642;9.008;2023-11-21T10:20:24;11.80;70.90
29007;DHT22;16104;48.642;9.008;2023-11-21T10:25:21;11.80;70.90
29007;DHT22;16104;48.642;9.008;2023-11-21T10:30:16;11.80;70.80
29007;DHT22;16104;48.642;9.008;2023-11-21T10:35:13;11.80;71.60
29007;DHT22;16104;48.642;9.008;2023-11-21T10:40:12;11.80;71.00
29007;DHT22;16104;48.642;9.008;2023-11-21T10:45:08;11.80;70.90
29007;DHT22;16104;48.642;9.008;2023-11-21T10:50:10;11.80;70.80
29007;DHT22;16104;48.642;9.008;2023-11-21T10:55:16;11.80;70.90
29007;DHT22;16104;48.642;9.008;2023-11-21T11:00:14;11.90;71.20
29007;DHT22;16104;48.642;9.008;2023-11-21T11:05:14;11.90;70.90
29007;DHT22;16104;48.642;9.008;2023-11-21T11:10:11;11.80;71.10
29007;DHT22;16104;48.642;9.008;2023-11-21T11:15:10;11.90;71.10
29007;DHT22;16104;48.642;9.008;2023-11-21T11:20:13;11.90;71.00
29007;DHT22;16104;48.642;9.008;2023-11-21T11:25:35;11.90;71.20
29007;DHT22;16104;48.642;9.008;2023-11-21T11:30:39;12.00;71.30
29007;DHT22;16104;48.642;9.008;2023-11-21T11:35:50;12.00;70.70
29007;DHT22;16104;48.642;9.008;2023-11-21T11:40:53;12.00;71.40
29007;DHT22;16104;48.642;9.008;2023-11-21T11:45:49;12.00;71.50
29007;DHT22;16104;48.642;9.008;2023-11-21T11:51:10;12.00;71.30
29007;DHT22;16104;48.642;9.008;2023-11-21T12:01:21;12.10;71.40
29007;DHT22;16104;48.642;9.008;2023-11-21T12:06:17;12.10;71.30
29007;DHT22;16104;48.642;9.008;2023-11-21T12:11:19;12.10;71.30
29007;DHT22;16104;48.642;9.008;2023-11-21T12:16:15;12.20;71.60
29007;DHT22;16104;48.642;9.008;2023-11-21T12:21:11;12.20;71.50
29007;DHT22;16104;48.642;9.008;2023-11-21T12:26:07;12.20;71.30
29007;DHT22;16104;48.642;9.008;2023-11-21T12:31:04;12.10;71.30
29007;DHT22;16104;48.642;9.008;2023-11-21T12:36:02;12.10;71.40
29007;DHT22;16104;48.642;9.008;2023-11-21T12:40:57;12.10;71.10
29007;DHT22;16104;48.642;9.008;2023-11-21T12:46:05;12.10;71.30
29007;DHT22;16104;48.642;9.008;2023-11-21T12:51:01;12.10;71.70
29007;DHT22;16104;48.642;9.008;2023-11-21T12:56:00;12.00;71.50
29007;DHT22;16104;48.642;9.008;2023-11-21T13:00:59;12.10;71.60
29007;DHT22;16104;48.642;9.008;2023-11-21T13:05:55;12.10;71.50
29007;DHT22;16104;48.642;9.008;2023-11-21T13:10:54;12.20;71.50
29007;DHT22;16104;48.642;9.008;2023-11-21T13:16:01;12.30;71.60
29007;DHT22;16104;48.642;9.008;2023-11-21T13:21:02;12.30;71.60
29007;DHT22;16104;48.642;9.008;2023-11-21T13:26:05;12.40;71.50
29007;DHT22;16104;48.642;9.008;2023-11-21T13:31:05;12.50;71.40
29007;DHT22;16104;48.642;9.008;2023-11-21T13:36:33;12.50;71.20
29007;DHT22;16104;48.642;9.008;2023-11-21T13:41:30;12.50;71.20
29007;DHT22;16104;48.642;9.008;2023-11-21T13:46:26;12.60;71.00
29007;DHT22;16104;48.642;9.008;2023-11-21T13:51:24;12.60;70.90
29007;DHT22;16104;48.642;9.008;2023-11-21T13:56:41;12.70;70.70
29007;DHT22;16104;48.642;9.008;2023-11-21T14:01:39;12.60;70.50
29007;DHT22;16104;48.642;9.008;2023-11-21T14:06:50;12.60;70.20
29007;DHT22;16104;48.642;9.008;2023-11-21T14:11:53;12.50;69.70
29007;DHT22;16104;48.642;9.008;2023-11-21T14:16:50;12.50;69.70
29007;DHT22;16104;48.642;9.008;2023-11-21T14:21:47;12.40;69.50
29007;DHT22;16104;48.642;9.008;2023-11-21T14:26:46;12.30;69.70
29007;DHT22;16104;48.642;9.008;2023-11-21T14:31:42;12.30;70.10
29007;DHT22;16104;48.642;9.008;2023-11-21T14:36:38;12.30;70.30
29007;DHT22;16104;48.642;9.008;2023-11-21T14:41:36;12.20;70.30
29007;DHT22;16104;48.642;9.008;2023-11-21T14:46:33;12.20;70.30
29007;DHT22;16104;48.642;9.008;2023-11-21T14:51:30;12.20;70.40
29007;DHT22;16104;48.642;9.008;2023-11-21T14:56:29;12.20;70.30
29007;DHT22;16104;48.642;9.008;2023-11-21T15:01:31;12.10;70.50
29007;DHT22;16104;48.642;9.008;2023-11-21T15:06:41;12.10;70.40
29007;DHT22;16104;48.642;9.008;2023-11-21T15:11:38;12.10;70.30
29007;DHT22;16104;48.642;9.008;2023-11-21T15:16:37;12.10;70.20
29007;DHT22;16104;48.642;9.008;2023-11-21T15:21:39;12.00;70.10
29007;DHT22;16104;48.642;9.008;2023-11-21T15:26:34;12.00;70.10
29007;DHT22;16104;48.642;9.008;2023-11-21T15:31:30;11.90;70.20
29007;DHT22;16104;48.642;9.008;2023-11-21T15:36:26;11.90;70.40
29007;DHT22;16104;48.642;9.008;2023-11-21T15:41:22;11.90;70.40
29007;DHT22;16104;48.642;9.008;2023-11-21T15:46:20;11.80;70.30
29007;DHT22;16104;48.642;9.008;2023-11-21T15:51:16;11.80;70.50
29007;DHT22;16104;48.642;9.008;2023-11-21T15:56:12;11.80;70.70
29007;DHT22;16104;48.642;9.008;2023-11-21T16:01:09;11.70;70.50
29007;DHT22;16104;48.642;9.008;2023-11-21T16:06:05;11.70;70.60
29007;DHT22;16104;48.642;9.008;2023-11-21T16:11:05;11.60;70.60
29007;DHT22;16104;48.642;9.008;2023-11-21T16:16:01;11.60;70.70
29007;DHT22;16104;48.642;9.008;2023-11-21T16:20:56;11.60;70.20
29007;DHT22;16104;48.642;9.008;2023-11-21T16:25:52;11.50;71.00
29007;DHT22;16104;48.642;9.008;2023-11-21T16:30:50;11.50;71.00
29007;DHT22;16104;48.642;9.008;2023-11-21T16:35:46;11.50;71.00
29007;DHT22;16104;48.642;9.008;2023-11-21T16:40:43;11.50;71.20
29007;DHT22;16104;48.642;9.008;2023-11-21T16:45:40;11.40;71.00
29007;DHT22;16104;48.642;9.008;2023-11-21T16:50:36;11.40;71.00
29007;DHT22;16104;48.642;9.008;2023-11-21T16:55:32;11.40;71.20
29007;DHT22;16104;48.642;9.008;2023-11-21T17:00:27;11.40;71.20
29007;DHT22;16104;48.642;9.008;2023-11-21T17:05:23;11.40;71.30
29007;DHT22;16104;48.642;9.008;2023-11-21T17:10:19;11.30;71.30
29007;DHT22;16104;48.642;9.008;2023-11-21T17:15:17;11.30;71.30
29007;DHT22;16104;48.642;9.008;2023-11-21T17:20:13;11.30;71.30
29007;DHT22;16104;48.642;9.008;2023-11-21T17:25:09;11.20;71.30
29007;DHT22;16104;48.642;9.008;2023-11-21T17:30:05;11.20;71.30
29007;DHT22;16104;48.642;9.008;2023-11-21T17:35:02;11.20;71.20
29007;DHT22;16104;48.642;9.008;2023-11-21T17:39:58;11.10;71.10
29007;DHT22;16104;48.642;9.008;2023-11-21T17:44:53;11.10;71.00
29007;DHT22;16104;48.642;9.008;2023-11-21T17:49:49;11.00;71.00
29007;DHT22;16104;48.642;9.008;2023-11-21T17:54:44;11.00;71.00
29007;DHT22;16104;48.642;9.008;2023-11-21T17:59:40;11.00;71.20
29007;DHT22;16104;48.642;9.008;2023-11-21T18:04:36;10.90;71.20
29007;DHT22;16104;48.642;9.008;2023-11-21T18:09:31;10.90;71.10
29007;DHT22;16104;48.642;9.008;2023-11-21T18:14:28;10.90;71.20
29007;DHT22;16104;48.642;9.008;2023-11-21T18:19:24;10.80;71.20
29007;DHT22;16104;48.642;9.008;2023-11-21T18:24:20;10.80;71.60
29007;DHT22;16104;48.642;9.008;2023-11-21T18:29:16;10.70;71.80
29007;DHT22;16104;48.642;9.008;2023-11-21T18:34:15;10.70;72.00
29007;DHT22;16104;48.642;9.008;2023-11-21T18:39:11;10.70;72.30
29007;DHT22;16104;48.642;9.008;2023-11-21T18:44:12;10.70;72.50
29007;DHT22;16104;48.642;9.008;2023-11-21T18:49:08;10.70;72.70
29007;DHT22;16104;48.642;9.008;2023-11-21T18:54:04;10.60;72.70
29007;DHT22;16104;48.642;9.008;2023-11-21T18:59:03;10.70;73.00
29007;DHT22;16104;48.642;9.008;2023-11-21T19:04:03;10.70;73.10
29007;DHT22;16104;48.642;9.008;2023-11-21T19:08:59;10.70;73.20
29007;DHT22;16104;48.642;9.008;2023-11-21T19:13:54;10.70;73.20
29007;DHT22;16104;48.642;9.008;2023-11-21T19:18:50;10.70;73.20
29007;DHT22;16104;48.642;9.008;2023-11-21T19:23:46;10.70;73.20
29007;DHT22;16104;48.642;9.008;2023-11-21T19:28:42;10.70;73.10
29007;DHT22;16104;48.642;9.008;2023-11-21T19:33:38;10.70;73.10
29007;DHT22;16104;48.642;9.008;2023-11-21T19:38:36;10.80;73.20
29007;DHT22;16104;48.642;9.008;2023-11-21T19:43:32;10.70;73.00
29007;DHT22;16104;48.642;9.008;2023-11-21T19:48:28;10.80;72.60
29007;DHT22;16104;48.642;9.008;2023-11-21T19:53:23;10.80;72.80
29007;DHT22;16104;48.642;9.008;2023-11-21T19:58:19;10.70;72.80
29007;DHT22;16104;48.642;9.008;2023-11-21T20:03:15;10.80;72.70
29007;DHT22;16104;48.642;9.008;2023-11-21T20:08:13;10.80;72.70
29007;DHT22;16104;48.642;9.008;2023-11-21T20:13:08;10.80;72.60
29007;DHT22;16104;48.642;9.008;2023-11-21T20:18:06;10.70;73.50
29007;DHT22;16104;48.642;9.008;2023-11-21T20:23:04;10.70;72.80
29007;DHT22;16104;48.642;9.008;2023-11-21T20:28:00;10.70;72.80
29007;DHT22;16104;48.642;9.008;2023-11-21T20:32:55;10.70;72.80
29007;DHT22;16104;48.642;9.008;2023-11-21T20:37:53;10.70;72.70
29007;DHT22;16104;48.642;9.008;2023-11-21T20:42:48;10.80;72.60
29007;DHT22;16104;48.642;9.008;2023-11-21T20:47:44;10.70;72.50
29007;DHT22;16104;48.642;9.008;2023-11-21T20:52:39;10.70;72.50
29007;DHT22;16104;48.642;9.008;2023-11-21T20:57:35;10.60;72.40
29007;DHT22;16104;48.642;9.008;2023-11-21T21:02:31;10.70;72.50
29007;DHT22;16104;48.642;9.008;2023-11-21T21:07:26;10.60;72.50
29007;DHT22;16104;48.642;9.008;2023-11-21T21:12:22;10.60;72.50
29007;DHT22;16104;48.642;9.008;2023-11-21T21:17:18;10.60;72.50
29007;DHT22;16104;48.642;9.008;2023-11-21T21:22:16;10.60;72.50
29007;DHT22;16104;48.642;9.008;2023-11-21T21:27:12;10.60;72.40
29007;DHT22;16104;48.642;9.008;2023-11-21T21:32:08;10.60;72.30
29007;DHT22;16104;48.642;9.008;2023-11-21T21:37:03;10.60;72.50
29007;DHT22;16104;48.642;9.008;2023-11-21T21:42:01;10.60;72.60
29007;DHT22;16104;48.642;9.008;2023-11-21T21:46:57;10.60;72.70
29007;DHT22;16104;48.642;9.008;2023-11-21T21:51:55;10.60;72.80
29007;DHT22;16104;48.642;9.008;2023-11-21T21:56:50;10.60;72.70
29007;DHT22;16104;48.642;9.008;2023-11-21T22:01:48;10.50;72.60
29007;DHT22;16104;48.642;9.008;2023-11-21T22:06:44;10.50;72.60
29007;DHT22;16104;48.642;9.008;2023-11-21T22:11:39;10.50;72.60
29007;DHT22;16104;48.642;9.008;2023-11-21T22:16:35;10.60;72.70
29007;DHT22;16104;48.642;9.008;2023-11-21T22:21:31;10.60;72.90
29007;DHT22;16104;48.642;9.008;2023-11-21T22:26:29;10.60;72.80
29007;DHT22;16104;48.642;9.008;2023-11-21T22:31:28;10.50;72.70
29007;DHT22;16104;48.642;9.008;2023-11-21T22:36:23;10.50;72.50
29007;DHT22;16104;48.642;9.008;2023-11-21T22:41:26;10.50;72.70
29007;DHT22;16104;48.642;9.008;2023-11-21T22:46:22;10.60;72.80
29007;DHT22;16104;48.642;9.008;2023-11-21T22:51:17;10.60;72.60
29007;DHT22;16104;48.642;9.008;2023-11-21T22:56:15;10.60;72.80
29007;DHT22;16104;48.642;9.008;2023-11-21T23:01:11;10.60;72.80
29007;DHT22;16104;48.642;9.008;2023-11-21T23:06:15;10.60;72.80
29007;DHT22;16104;48.642;9.008;2023-11-21T23:11:14;10.50;72.90
29007;DHT22;16104;48.642;9.008;2023-11-21T23:16:17;10.50;72.80
29007;DHT22;16104;48.642;9.008;2023-11-21T23:21:12;10.50;72.80
29007;DHT22;16104;48.642;9.008;2023-11-21T23:26:08;10.50;72.80
29007;DHT22;16104;48.642;9.008;2023-11-21T23:31:05;10.50;72.90
29007;DHT22;16104;48.642;9.008;2023-11-21T23:36:04;10.50;72.80
29007;DHT22;16104;48.642;9.008;2023-11-21T23:40:59;10.50;72.90
29007;DHT22;16104;48.642;9.008;2023-11-21T23:45:55;10.50;72.80
29007;DHT22;16104;48.642;9.008;2023-11-21T23:50:51;10.50;72.90
29007;DHT22;16104;48.642;9.008;2023-11-21T23:55:47;10.50;72.80
